sensor_id;sensor_type;location;lat;lon;timestamp;P1;durP1;ratioP1;P2;durP2;ratioP2
5827;SDS011;42583;50.240;8.444;2023-04-15T00:15:00;8.85;;;4.15;;
5827;SDS011;42583;50.240;8.444;2023-04-15T00:30:01;7.35;;;3.72;;
5827;SDS011;42583;50.240;8.444;2023-04-15T00:45:03;10.70;;;3.83;;
5827;SDS011;42583;50.240;8.444;2023-04-15T01:00:04;5.97;;;2.08;;
5827;SDS011;42583;50.240;8.444;2023-04-15T01:15:10;5.72;;;2.08;;
5827;SDS011;42583;50.240;8.444;2023-04-15T01:30:11;6.47;;;3.38;;
5827;SDS011;42583;50.240;8.444;2023-04-15T01:45:11;7.40;;;3.08;;
5827;SDS011;42583;50.240;8.444;2023-04-15T02:00:15;5.40;;;1.85;;
5827;SDS011;42583;50.240;8.444;2023-04-15T02:15:16;5.55;;;2.00;;
5827;SDS011;42583;50.240;8.444;2023-04-15T02:30:17;5.00;;;1.90;;
5827;SDS011;42583;50.240;8.444;2023-04-15T02:45:18;6.53;;;1.90;;
5827;SDS011;42583;50.240;8.444;2023-04-15T03:00:22;5.20;;;1.63;;
5827;SDS011;42583;50.240;8.444;2023-04-15T03:15:24;4.53;;;1.98;;
5827;SDS011;42583;50.240;8.444;2023-04-15T03:30:24;6.28;;;2.22;;
5827;SDS011;42583;50.240;8.444;2023-04-15T03:45:25;4.35;;;2.00;;
5827;SDS011;42583;50.240;8.444;2023-04-15T04:00:26;3.20;;;2.20;;
5827;SDS011;42583;50.240;8.444;2023-04-15T04:15:26;6.38;;;3.05;;
5827;SDS011;42583;50.240;8.444;2023-04-15T04:30:27;8.20;;;3.20;;
5827;SDS011;42583;50.240;8.444;2023-04-15T04:45:28;9.88;;;4.75;;
5827;SDS011;42583;50.240;8.444;2023-04-15T05:00:29;7.28;;;3.08;;
5827;SDS011;42583;50.240;8.444;2023-04-15T05:15:30;6.93;;;3.60;;
5827;SDS011;42583;50.240;8.444;2023-04-15T05:30:31;10.65;;;3.60;;
5827;SDS011;42583;50.240;8.444;2023-04-15T05:45:32;10.52;;;6.65;;
5827;SDS011;42583;50.240;8.444;2023-04-15T06:00:32;6.40;;;3.78;;
5827;SDS011;42583;50.240;8.444;2023-04-15T06:15:33;6.68;;;3.70;;
5827;SDS011;42583;50.240;8.444;2023-04-15T06:30:34;6.78;;;3.22;;
5827;SDS011;42583;50.240;8.444;2023-04-15T06:45:35;7.72;;;3.92;;
5827;SDS011;42583;50.240;8.444;2023-04-15T07:00:35;7.53;;;3.20;;
5827;SDS011;42583;50.240;8.444;2023-04-15T07:15:38;7.30;;;3.80;;
5827;SDS011;42583;50.240;8.444;2023-04-15T07:30:38;7.32;;;4.97;;
5827;SDS011;42583;50.240;8.444;2023-04-15T07:45:39;6.95;;;4.18;;
5827;SDS011;42583;50.240;8.444;2023-04-15T08:00:39;6.85;;;3.72;;
5827;SDS011;42583;50.240;8.444;2023-04-15T08:15:40;9.25;;;3.60;;
5827;SDS011;42583;50.240;8.444;2023-04-15T08:30:41;7.28;;;3.00;;
5827;SDS011;42583;50.240;8.444;2023-04-15T08:45:41;5.00;;;2.63;;
5827;SDS011;42583;50.240;8.444;2023-04-15T09:00:43;4.68;;;2.40;;
5827;SDS011;42583;50.240;8.444;2023-04-15T09:15:43;4.20;;;2.20;;
5827;SDS011;42583;50.240;8.444;2023-04-15T09:30:44;5.18;;;2.10;;
5827;SDS011;42583;50.240;8.444;2023-04-15T09:45:47;2.47;;;1.83;;
5827;SDS011;42583;50.240;8.444;2023-04-15T10:00:50;3.45;;;1.50;;
5827;SDS011;42583;50.240;8.444;2023-04-15T10:15:55;3.25;;;1.50;;
5827;SDS011;42583;50.240;8.444;2023-04-15T10:31:01;3.33;;;1.20;;
5827;SDS011;42583;50.240;8.444;2023-04-15T10:46:07;1.80;;;1.30;;
5827;SDS011;42583;50.240;8.444;2023-04-15T11:01:09;2.03;;;1.40;;
5827;SDS011;42583;50.240;8.444;2023-04-15T11:16:10;3.70;;;1.35;;
5827;SDS011;42583;50.240;8.444;2023-04-15T11:46:12;1.70;;;1.20;;
5827;SDS011;42583;50.240;8.444;2023-04-15T12:01:12;1.92;;;1.50;;
5827;SDS011;42583;50.240;8.444;2023-04-15T12:16:16;1.63;;;1.40;;
5827;SDS011;42583;50.240;8.444;2023-04-15T12:31:19;4.13;;;1.60;;
5827;SDS011;42583;50.240;8.444;2023-04-15T12:46:20;2.95;;;2.13;;
5827;SDS011;42583;50.240;8.444;2023-04-15T13:01:21;2.63;;;1.75;;
5827;SDS011;42583;50.240;8.444;2023-04-15T13:16:22;2.40;;;1.90;;
5827;SDS011;42583;50.240;8.444;2023-04-15T13:31:23;1.88;;;1.48;;
5827;SDS011;42583;50.240;8.444;2023-04-15T13:46:24;4.80;;;1.70;;
5827;SDS011;42583;50.240;8.444;2023-04-15T14:01:25;2.50;;;1.90;;
5827;SDS011;42583;50.240;8.444;2023-04-15T14:16:26;3.36;;;2.30;;
5827;SDS011;42583;50.240;8.444;2023-04-15T14:31:26;1.90;;;1.70;;
5827;SDS011;42583;50.240;8.444;2023-04-15T14:46:27;2.13;;;1.73;;
5827;SDS011;42583;50.240;8.444;2023-04-15T15:01:27;2.03;;;1.60;;
5827;SDS011;42583;50.240;8.444;2023-04-15T15:16:29;1.98;;;1.58;;
5827;SDS011;42583;50.240;8.444;2023-04-15T15:31:30;1.95;;;1.50;;
5827;SDS011;42583;50.240;8.444;2023-04-15T15:46:30;2.33;;;2.00;;
5827;SDS011;42583;50.240;8.444;2023-04-15T16:01:31;2.60;;;1.80;;
5827;SDS011;42583;50.240;8.444;2023-04-15T16:16:31;4.35;;;1.88;;
5827;SDS011;42583;50.240;8.444;2023-04-15T16:31:33;3.72;;;2.17;;
5827;SDS011;42583;50.240;8.444;2023-04-15T16:46:36;2.95;;;1.90;;
5827;SDS011;42583;50.240;8.444;2023-04-15T17:04:29;3.20;;;2.08;;
5827;SDS011;42583;50.240;8.444;2023-04-15T17:19:29;2.85;;;1.98;;
5827;SDS011;42583;50.240;8.444;2023-04-15T17:34:30;3.17;;;2.15;;
5827;SDS011;42583;50.240;8.444;2023-04-15T17:49:31;3.17;;;2.22;;
5827;SDS011;42583;50.240;8.444;2023-04-15T18:04:33;3.45;;;2.30;;
5827;SDS011;42583;50.240;8.444;2023-04-15T18:19:33;3.47;;;2.13;;
5827;SDS011;42583;50.240;8.444;2023-04-15T18:34:34;3.85;;;2.40;;
5827;SDS011;42583;50.240;8.444;2023-04-15T18:49:34;4.68;;;2.85;;
5827;SDS011;42583;50.240;8.444;2023-04-15T19:04:35;6.46;;;3.40;;
5827;SDS011;42583;50.240;8.444;2023-04-15T19:19:36;4.13;;;2.83;;
5827;SDS011;42583;50.240;8.444;2023-04-15T19:34:37;5.57;;;3.17;;
5827;SDS011;42583;50.240;8.444;2023-04-15T19:49:38;6.95;;;3.40;;
5827;SDS011;42583;50.240;8.444;2023-04-15T20:04:38;6.25;;;3.42;;
5827;SDS011;42583;50.240;8.444;2023-04-15T20:19:39;7.60;;;3.45;;
5827;SDS011;42583;50.240;8.444;2023-04-15T20:34:39;8.10;;;3.65;;
5827;SDS011;42583;50.240;8.444;2023-04-15T20:49:40;6.97;;;3.60;;
5827;SDS011;42583;50.240;8.444;2023-04-15T21:04:41;6.43;;;3.65;;
5827;SDS011;42583;50.240;8.444;2023-04-15T21:19:41;6.63;;;3.78;;
5827;SDS011;42583;50.240;8.444;2023-04-15T21:34:42;8.55;;;3.70;;
5827;SDS011;42583;50.240;8.444;2023-04-15T21:49:42;7.85;;;4.40;;
5827;SDS011;42583;50.240;8.444;2023-04-15T22:04:43;135.88;;;6.60;;
5827;SDS011;42583;50.240;8.444;2023-04-15T22:19:43;492.85;;;13.65;;
5827;SDS011;42583;50.240;8.444;2023-04-15T22:34:44;35.05;;;6.20;;
5827;SDS011;42583;50.240;8.444;2023-04-15T22:49:45;13.95;;;7.05;;
5827;SDS011;42583;50.240;8.444;2023-04-15T23:04:46;50.67;;;6.97;;
5827;SDS011;42583;50.240;8.444;2023-04-15T23:19:46;131.15;;;8.02;;
5827;SDS011;42583;50.240;8.444;2023-04-15T23:34:47;377.92;;;10.50;;
5827;SDS011;42583;50.240;8.444;2023-04-15T23:49:47;655.47;;;15.30;;
